sensor_id;sensor_type;location;lat;lon;timestamp;P1;durP1;ratioP1;P2;durP2;ratioP2
58366;SDS011;57745;42.524;12.052;2022-09-30T00:02:10;4.63;;;0.95;;
58366;SDS011;57745;42.524;12.052;2022-09-30T00:04:36;1.67;;;0.65;;
58366;SDS011;57745;42.524;12.052;2022-09-30T00:07:02;2.10;;;0.65;;
58366;SDS011;57745;42.524;12.052;2022-09-30T00:09:28;2.47;;;0.77;;
58366;SDS011;57745;42.524;12.052;2022-09-30T00:11:53;4.45;;;0.85;;
58366;SDS011;57745;42.524;12.052;2022-09-30T00:14:20;4.25;;;0.77;;
58366;SDS011;57745;42.524;12.052;2022-09-30T00:16:47;3.78;;;0.77;;
58366;SDS011;57745;42.524;12.052;2022-09-30T00:19:13;1.65;;;0.95;;
58366;SDS011;57745;42.524;12.052;2022-09-30T00:21:39;2.85;;;0.90;;
58366;SDS011;57745;42.524;12.052;2022-09-30T00:24:06;4.25;;;0.60;;
58366;SDS011;57745;42.524;12.052;2022-09-30T00:26:32;2.70;;;0.88;;
58366;SDS011;57745;42.524;12.052;2022-09-30T00:28:58;2.55;;;0.70;;
58366;SDS011;57745;42.524;12.052;2022-09-30T00:31:26;1.98;;;0.60;;
58366;SDS011;57745;42.524;12.052;2022-09-30T00:33:55;3.28;;;0.50;;
58366;SDS011;57745;42.524;12.052;2022-09-30T00:36:34;3.15;;;0.68;;
58366;SDS011;57745;42.524;12.052;2022-09-30T00:39:32;2.45;;;0.70;;
58366;SDS011;57745;42.524;12.052;2022-09-30T00:41:59;2.85;;;0.68;;
58366;SDS011;57745;42.524;12.052;2022-09-30T00:47:35;2.65;;;0.70;;
58366;SDS011;57745;42.524;12.052;2022-09-30T00:55:36;2.35;;;0.52;;
58366;SDS011;57745;42.524;12.052;2022-09-30T00:58:08;2.22;;;0.70;;
58366;SDS011;57745;42.524;12.052;2022-09-30T01:00:36;2.40;;;0.73;;
58366;SDS011;57745;42.524;12.052;2022-09-30T01:03:01;2.45;;;0.88;;
58366;SDS011;57745;42.524;12.052;2022-09-30T01:05:28;2.67;;;0.60;;
58366;SDS011;57745;42.524;12.052;2022-09-30T01:07:56;1.60;;;0.50;;
58366;SDS011;57745;42.524;12.052;2022-09-30T01:10:24;5.07;;;0.88;;
58366;SDS011;57745;42.524;12.052;2022-09-30T01:12:50;3.20;;;0.82;;
58366;SDS011;57745;42.524;12.052;2022-09-30T01:15:16;4.13;;;0.82;;
58366;SDS011;57745;42.524;12.052;2022-09-30T01:18:45;1.27;;;0.52;;
58366;SDS011;57745;42.524;12.052;2022-09-30T01:20:59;2.80;;;0.55;;
58366;SDS011;57745;42.524;12.052;2022-09-30T01:38:17;2.10;;;0.60;;
58366;SDS011;57745;42.524;12.052;2022-09-30T01:40:58;2.85;;;1.02;;
58366;SDS011;57745;42.524;12.052;2022-09-30T01:49:11;1.48;;;0.60;;
58366;SDS011;57745;42.524;12.052;2022-09-30T01:51:44;1.63;;;0.60;;
58366;SDS011;57745;42.524;12.052;2022-09-30T01:56:59;1.73;;;0.60;;
58366;SDS011;57745;42.524;12.052;2022-09-30T01:59:50;2.20;;;0.80;;
58366;SDS011;57745;42.524;12.052;2022-09-30T02:02:31;1.35;;;0.70;;
58366;SDS011;57745;42.524;12.052;2022-09-30T02:05:07;2.53;;;0.55;;
58366;SDS011;57745;42.524;12.052;2022-09-30T02:07:40;2.35;;;0.60;;
58366;SDS011;57745;42.524;12.052;2022-09-30T02:12:49;2.58;;;0.70;;
58366;SDS011;57745;42.524;12.052;2022-09-30T02:15:20;0.95;;;0.60;;
58366;SDS011;57745;42.524;12.052;2022-09-30T02:17:55;2.63;;;0.70;;
58366;SDS011;57745;42.524;12.052;2022-09-30T02:20:35;2.53;;;0.60;;
58366;SDS011;57745;42.524;12.052;2022-09-30T02:25:32;3.80;;;0.70;;
58366;SDS011;57745;42.524;12.052;2022-09-30T02:28:06;1.63;;;0.60;;
58366;SDS011;57745;42.524;12.052;2022-09-30T02:30:37;1.20;;;0.43;;
58366;SDS011;57745;42.524;12.052;2022-09-30T02:33:08;3.40;;;0.98;;
58366;SDS011;57745;42.524;12.052;2022-09-30T02:35:46;2.35;;;0.70;;
58366;SDS011;57745;42.524;12.052;2022-09-30T02:38:30;0.77;;;0.47;;
58366;SDS011;57745;42.524;12.052;2022-09-30T02:41:11;2.65;;;0.50;;
58366;SDS011;57745;42.524;12.052;2022-09-30T02:43:42;2.22;;;0.65;;
58366;SDS011;57745;42.524;12.052;2022-09-30T02:46:09;1.67;;;0.52;;
58366;SDS011;57745;42.524;12.052;2022-09-30T02:49:21;2.05;;;0.65;;
58366;SDS011;57745;42.524;12.052;2022-09-30T02:57:15;1.90;;;0.43;;
58366;SDS011;57745;42.524;12.052;2022-09-30T02:59:46;2.63;;;0.63;;
58366;SDS011;57745;42.524;12.052;2022-09-30T03:02:16;3.40;;;0.57;;
58366;SDS011;57745;42.524;12.052;2022-09-30T03:04:42;2.20;;;0.60;;
58366;SDS011;57745;42.524;12.052;2022-09-30T03:07:10;2.53;;;0.70;;
58366;SDS011;57745;42.524;12.052;2022-09-30T03:09:36;2.58;;;0.80;;
58366;SDS011;57745;42.524;12.052;2022-09-30T03:12:07;1.55;;;0.50;;
58366;SDS011;57745;42.524;12.052;2022-09-30T03:20:24;4.50;;;0.93;;
58366;SDS011;57745;42.524;12.052;2022-09-30T03:25:29;1.15;;;0.60;;
58366;SDS011;57745;42.524;12.052;2022-09-30T03:34:03;2.05;;;0.60;;
58366;SDS011;57745;42.524;12.052;2022-09-30T03:39:24;2.35;;;0.85;;
58366;SDS011;57745;42.524;12.052;2022-09-30T03:42:04;2.30;;;0.70;;
58366;SDS011;57745;42.524;12.052;2022-09-30T03:47:28;1.67;;;0.70;;
58366;SDS011;57745;42.524;12.052;2022-09-30T03:49:57;2.83;;;0.60;;
58366;SDS011;57745;42.524;12.052;2022-09-30T03:52:26;2.35;;;0.60;;
58366;SDS011;57745;42.524;12.052;2022-09-30T03:54:59;1.42;;;0.55;;
58366;SDS011;57745;42.524;12.052;2022-09-30T03:57:27;2.15;;;0.57;;
58366;SDS011;57745;42.524;12.052;2022-09-30T03:59:56;3.45;;;0.90;;
58366;SDS011;57745;42.524;12.052;2022-09-30T04:02:23;3.85;;;0.70;;
58366;SDS011;57745;42.524;12.052;2022-09-30T04:04:49;3.70;;;0.60;;
58366;SDS011;57745;42.524;12.052;2022-09-30T04:07:15;4.15;;;0.85;;
58366;SDS011;57745;42.524;12.052;2022-09-30T04:09:40;2.63;;;0.80;;
58366;SDS011;57745;42.524;12.052;2022-09-30T04:12:06;1.02;;;0.60;;
58366;SDS011;57745;42.524;12.052;2022-09-30T04:14:32;2.25;;;0.60;;
58366;SDS011;57745;42.524;12.052;2022-09-30T04:16:58;0.80;;;0.40;;
58366;SDS011;57745;42.524;12.052;2022-09-30T04:19:24;2.50;;;0.60;;
58366;SDS011;57745;42.524;12.052;2022-09-30T04:21:50;1.20;;;0.50;;
58366;SDS011;57745;42.524;12.052;2022-09-30T04:24:19;1.85;;;0.95;;
58366;SDS011;57745;42.524;12.052;2022-09-30T04:26:46;3.35;;;0.70;;
58366;SDS011;57745;42.524;12.052;2022-09-30T04:29:12;1.73;;;0.60;;
58366;SDS011;57745;42.524;12.052;2022-09-30T04:31:38;3.78;;;0.80;;
58366;SDS011;57745;42.524;12.052;2022-09-30T04:34:04;2.15;;;0.80;;
58366;SDS011;57745;42.524;12.052;2022-09-30T04:36:29;2.40;;;0.75;;
58366;SDS011;57745;42.524;12.052;2022-09-30T04:38:55;1.55;;;0.60;;
58366;SDS011;57745;42.524;12.052;2022-09-30T04:41:20;2.60;;;0.60;;
58366;SDS011;57745;42.524;12.052;2022-09-30T04:43:46;2.35;;;0.80;;
58366;SDS011;57745;42.524;12.052;2022-09-30T04:46:16;1.65;;;0.57;;
58366;SDS011;57745;42.524;12.052;2022-09-30T04:48:43;3.15;;;0.95;;
58366;SDS011;57745;42.524;12.052;2022-09-30T04:51:12;0.80;;;0.50;;
58366;SDS011;57745;42.524;12.052;2022-09-30T04:53:39;2.63;;;0.80;;
58366;SDS011;57745;42.524;12.052;2022-09-30T04:56:06;1.98;;;0.70;;
58366;SDS011;57745;42.524;12.052;2022-09-30T04:58:32;1.92;;;0.80;;
58366;SDS011;57745;42.524;12.052;2022-09-30T05:01:04;3.30;;;0.63;;
58366;SDS011;57745;42.524;12.052;2022-09-30T05:03:35;3.45;;;0.65;;
58366;SDS011;57745;42.524;12.052;2022-09-30T05:06:00;0.88;;;0.52;;
58366;SDS011;57745;42.524;12.052;2022-09-30T05:08:27;2.15;;;0.88;;
58366;SDS011;57745;42.524;12.052;2022-09-30T05:10:56;2.65;;;1.05;;
58366;SDS011;57745;42.524;12.052;2022-09-30T05:13:29;3.72;;;0.60;;
58366;SDS011;57745;42.524;12.052;2022-09-30T05:15:56;2.10;;;0.60;;
58366;SDS011;57745;42.524;12.052;2022-09-30T05:18:22;2.60;;;0.80;;
58366;SDS011;57745;42.524;12.052;2022-09-30T05:20:50;2.05;;;0.85;;
58366;SDS011;57745;42.524;12.052;2022-09-30T05:23:17;2.70;;;0.82;;
58366;SDS011;57745;42.524;12.052;2022-09-30T05:25:44;3.30;;;0.70;;
58366;SDS011;57745;42.524;12.052;2022-09-30T05:28:10;2.03;;;1.00;;
58366;SDS011;57745;42.524;12.052;2022-09-30T05:30:36;2.70;;;0.70;;
58366;SDS011;57745;42.524;12.052;2022-09-30T05:33:02;1.50;;;0.60;;
58366;SDS011;57745;42.524;12.052;2022-09-30T05:35:28;1.70;;;0.70;;
58366;SDS011;57745;42.524;12.052;2022-09-30T05:37:53;3.00;;;0.95;;
58366;SDS011;57745;42.524;12.052;2022-09-30T05:40:19;2.83;;;1.17;;
58366;SDS011;57745;42.524;12.052;2022-09-30T05:42:44;3.65;;;1.10;;
58366;SDS011;57745;42.524;12.052;2022-09-30T05:45:11;1.90;;;0.75;;
58366;SDS011;57745;42.524;12.052;2022-09-30T05:47:37;1.95;;;1.10;;
58366;SDS011;57745;42.524;12.052;2022-09-30T05:50:03;2.30;;;1.08;;
58366;SDS011;57745;42.524;12.052;2022-09-30T05:52:29;2.75;;;1.20;;
58366;SDS011;57745;42.524;12.052;2022-09-30T05:54:55;2.22;;;1.00;;
58366;SDS011;57745;42.524;12.052;2022-09-30T05:57:21;2.00;;;1.08;;
58366;SDS011;57745;42.524;12.052;2022-09-30T05:59:47;3.10;;;1.00;;
58366;SDS011;57745;42.524;12.052;2022-09-30T06:02:12;3.53;;;1.15;;
58366;SDS011;57745;42.524;12.052;2022-09-30T06:04:38;2.88;;;0.90;;
58366;SDS011;57745;42.524;12.052;2022-09-30T06:07:03;2.50;;;1.10;;
58366;SDS011;57745;42.524;12.052;2022-09-30T06:09:30;2.70;;;1.10;;
58366;SDS011;57745;42.524;12.052;2022-09-30T06:11:55;2.95;;;1.10;;
58366;SDS011;57745;42.524;12.052;2022-09-30T06:14:23;3.40;;;0.93;;
58366;SDS011;57745;42.524;12.052;2022-09-30T06:16:48;3.35;;;1.13;;
58366;SDS011;57745;42.524;12.052;2022-09-30T06:19:14;4.60;;;1.00;;
58366;SDS011;57745;42.524;12.052;2022-09-30T06:21:39;2.67;;;1.23;;
58366;SDS011;57745;42.524;12.052;2022-09-30T06:24:05;3.50;;;0.90;;
58366;SDS011;57745;42.524;12.052;2022-09-30T06:26:33;2.85;;;1.10;;
58366;SDS011;57745;42.524;12.052;2022-09-30T06:28:58;3.67;;;1.15;;
58366;SDS011;57745;42.524;12.052;2022-09-30T06:31:24;3.40;;;1.08;;
58366;SDS011;57745;42.524;12.052;2022-09-30T06:33:53;3.00;;;1.40;;
58366;SDS011;57745;42.524;12.052;2022-09-30T06:36:18;2.97;;;1.20;;
58366;SDS011;57745;42.524;12.052;2022-09-30T06:38:44;3.92;;;1.13;;
58366;SDS011;57745;42.524;12.052;2022-09-30T06:41:15;3.40;;;1.60;;
58366;SDS011;57745;42.524;12.052;2022-09-30T06:43:40;3.33;;;1.33;;
58366;SDS011;57745;42.524;12.052;2022-09-30T06:46:06;3.58;;;1.38;;
58366;SDS011;57745;42.524;12.052;2022-09-30T06:48:33;3.65;;;1.35;;
58366;SDS011;57745;42.524;12.052;2022-09-30T06:50:58;4.90;;;1.08;;
58366;SDS011;57745;42.524;12.052;2022-09-30T06:53:24;1.85;;;1.00;;
58366;SDS011;57745;42.524;12.052;2022-09-30T06:55:55;4.53;;;1.13;;
58366;SDS011;57745;42.524;12.052;2022-09-30T06:58:21;2.58;;;1.20;;
58366;SDS011;57745;42.524;12.052;2022-09-30T07:01:01;5.57;;;1.50;;
58366;SDS011;57745;42.524;12.052;2022-09-30T07:03:30;3.47;;;1.10;;
58366;SDS011;57745;42.524;12.052;2022-09-30T07:05:58;2.33;;;0.95;;
58366;SDS011;57745;42.524;12.052;2022-09-30T07:08:25;2.35;;;1.02;;
58366;SDS011;57745;42.524;12.052;2022-09-30T07:10:59;3.63;;;1.23;;
58366;SDS011;57745;42.524;12.052;2022-09-30T07:13:26;2.55;;;1.45;;
58366;SDS011;57745;42.524;12.052;2022-09-30T07:15:52;2.30;;;0.90;;
58366;SDS011;57745;42.524;12.052;2022-09-30T07:18:20;3.15;;;1.20;;
58366;SDS011;57745;42.524;12.052;2022-09-30T07:20:47;1.58;;;0.93;;
58366;SDS011;57745;42.524;12.052;2022-09-30T07:23:17;3.42;;;1.35;;
58366;SDS011;57745;42.524;12.052;2022-09-30T07:25:53;1.88;;;0.70;;
58366;SDS011;57745;42.524;12.052;2022-09-30T07:28:26;2.80;;;0.90;;
58366;SDS011;57745;42.524;12.052;2022-09-30T07:30:56;0.88;;;0.60;;
58366;SDS011;57745;42.524;12.052;2022-09-30T07:33:24;1.60;;;0.70;;
58366;SDS011;57745;42.524;12.052;2022-09-30T07:35:55;2.17;;;0.90;;
58366;SDS011;57745;42.524;12.052;2022-09-30T07:38:22;2.35;;;0.90;;
58366;SDS011;57745;42.524;12.052;2022-09-30T07:41:00;3.00;;;0.80;;
58366;SDS011;57745;42.524;12.052;2022-09-30T07:43:28;2.17;;;0.65;;
58366;SDS011;57745;42.524;12.052;2022-09-30T07:46:06;2.58;;;1.20;;
58366;SDS011;57745;42.524;12.052;2022-09-30T07:48:33;1.88;;;0.82;;
58366;SDS011;57745;42.524;12.052;2022-09-30T07:51:05;1.73;;;1.00;;
58366;SDS011;57745;42.524;12.052;2022-09-30T07:53:30;1.38;;;0.82;;
58366;SDS011;57745;42.524;12.052;2022-09-30T07:55:56;1.58;;;0.75;;
58366;SDS011;57745;42.524;12.052;2022-09-30T07:58:27;1.80;;;0.70;;
58366;SDS011;57745;42.524;12.052;2022-09-30T08:00:52;4.00;;;1.00;;
58366;SDS011;57745;42.524;12.052;2022-09-30T08:03:17;5.28;;;1.08;;
58366;SDS011;57745;42.524;12.052;2022-09-30T08:05:43;2.03;;;0.88;;
58366;SDS011;57745;42.524;12.052;2022-09-30T08:08:10;3.60;;;0.93;;
58366;SDS011;57745;42.524;12.052;2022-09-30T08:10:37;2.97;;;0.70;;
58366;SDS011;57745;42.524;12.052;2022-09-30T08:13:02;3.97;;;1.15;;
58366;SDS011;57745;42.524;12.052;2022-09-30T08:15:28;2.40;;;0.90;;
58366;SDS011;57745;42.524;12.052;2022-09-30T08:17:53;3.33;;;0.90;;
58366;SDS011;57745;42.524;12.052;2022-09-30T08:20:31;3.13;;;1.10;;
58366;SDS011;57745;42.524;12.052;2022-09-30T08:22:57;2.22;;;1.00;;
58366;SDS011;57745;42.524;12.052;2022-09-30T08:25:23;3.15;;;1.05;;
58366;SDS011;57745;42.524;12.052;2022-09-30T08:27:49;2.53;;;0.88;;
58366;SDS011;57745;42.524;12.052;2022-09-30T08:30:15;4.18;;;1.00;;
58366;SDS011;57745;42.524;12.052;2022-09-30T08:32:41;2.67;;;0.82;;
58366;SDS011;57745;42.524;12.052;2022-09-30T08:35:07;1.95;;;0.90;;
58366;SDS011;57745;42.524;12.052;2022-09-30T08:37:33;3.35;;;1.08;;
58366;SDS011;57745;42.524;12.052;2022-09-30T08:39:58;2.22;;;1.27;;
58366;SDS011;57745;42.524;12.052;2022-09-30T08:51:06;3.40;;;0.90;;
58366;SDS011;57745;42.524;12.052;2022-09-30T08:53:51;3.05;;;1.10;;
58366;SDS011;57745;42.524;12.052;2022-09-30T08:56:23;4.15;;;1.35;;
58366;SDS011;57745;42.524;12.052;2022-09-30T08:58:53;5.38;;;1.05;;
58366;SDS011;57745;42.524;12.052;2022-09-30T09:01:31;4.65;;;1.25;;
58366;SDS011;57745;42.524;12.052;2022-09-30T09:04:02;4.68;;;1.05;;
58366;SDS011;57745;42.524;12.052;2022-09-30T09:12:11;1.80;;;0.77;;
58366;SDS011;57745;42.524;12.052;2022-09-30T09:14:55;4.80;;;1.35;;
58366;SDS011;57745;42.524;12.052;2022-09-30T09:18:01;2.58;;;1.10;;
58366;SDS011;57745;42.524;12.052;2022-09-30T09:20:58;6.70;;;1.10;;
58366;SDS011;57745;42.524;12.052;2022-09-30T09:23:33;3.28;;;1.05;;
58366;SDS011;57745;42.524;12.052;2022-09-30T09:25:59;6.72;;;1.52;;
58366;SDS011;57745;42.524;12.052;2022-09-30T09:31:12;5.57;;;1.23;;
58366;SDS011;57745;42.524;12.052;2022-09-30T09:33:41;5.72;;;1.73;;
58366;SDS011;57745;42.524;12.052;2022-09-30T09:39:25;4.35;;;1.40;;
58366;SDS011;57745;42.524;12.052;2022-09-30T09:41:51;6.97;;;1.20;;
58366;SDS011;57745;42.524;12.052;2022-09-30T09:44:27;4.70;;;1.23;;
58366;SDS011;57745;42.524;12.052;2022-09-30T09:47:01;2.85;;;1.08;;
58366;SDS011;57745;42.524;12.052;2022-09-30T09:54:46;4.80;;;1.20;;
58366;SDS011;57745;42.524;12.052;2022-09-30T09:57:21;5.03;;;1.63;;
58366;SDS011;57745;42.524;12.052;2022-09-30T09:59:53;5.15;;;1.10;;
58366;SDS011;57745;42.524;12.052;2022-09-30T10:02:26;3.95;;;1.60;;
58366;SDS011;57745;42.524;12.052;2022-09-30T10:04:54;4.05;;;1.65;;
58366;SDS011;57745;42.524;12.052;2022-09-30T10:07:28;2.83;;;1.00;;
58366;SDS011;57745;42.524;12.052;2022-09-30T10:12:49;5.13;;;1.45;;
58366;SDS011;57745;42.524;12.052;2022-09-30T10:17:52;3.15;;;1.00;;
58366;SDS011;57745;42.524;12.052;2022-09-30T10:20:27;3.78;;;1.20;;
58366;SDS011;57745;42.524;12.052;2022-09-30T10:23:09;4.43;;;1.20;;
58366;SDS011;57745;42.524;12.052;2022-09-30T10:28:49;4.75;;;1.75;;
58366;SDS011;57745;42.524;12.052;2022-09-30T10:31:24;7.63;;;1.65;;
58366;SDS011;57745;42.524;12.052;2022-09-30T10:33:56;3.97;;;1.30;;
58366;SDS011;57745;42.524;12.052;2022-09-30T10:36:43;7.13;;;1.58;;
58366;SDS011;57745;42.524;12.052;2022-09-30T10:41:59;7.57;;;2.65;;
58366;SDS011;57745;42.524;12.052;2022-09-30T10:44:43;7.70;;;1.70;;
58366;SDS011;57745;42.524;12.052;2022-09-30T10:47:19;5.80;;;1.42;;
58366;SDS011;57745;42.524;12.052;2022-09-30T10:49:47;6.55;;;1.77;;
58366;SDS011;57745;42.524;12.052;2022-09-30T10:52:22;10.38;;;1.80;;
58366;SDS011;57745;42.524;12.052;2022-09-30T10:54:54;7.65;;;2.00;;
58366;SDS011;57745;42.524;12.052;2022-09-30T10:57:28;5.40;;;1.63;;
58366;SDS011;57745;42.524;12.052;2022-09-30T11:00:12;7.07;;;1.48;;
58366;SDS011;57745;42.524;12.052;2022-09-30T11:05:29;5.90;;;1.10;;
58366;SDS011;57745;42.524;12.052;2022-09-30T11:16:08;6.90;;;1.60;;
58366;SDS011;57745;42.524;12.052;2022-09-30T11:21:56;5.18;;;1.40;;
58366;SDS011;57745;42.524;12.052;2022-09-30T11:24:31;5.97;;;1.52;;
58366;SDS011;57745;42.524;12.052;2022-09-30T11:29:48;4.55;;;1.35;;
58366;SDS011;57745;42.524;12.052;2022-09-30T11:38:21;3.70;;;1.50;;
58366;SDS011;57745;42.524;12.052;2022-09-30T11:51:39;4.10;;;1.42;;
58366;SDS011;57745;42.524;12.052;2022-09-30T11:54:52;3.53;;;1.58;;
58366;SDS011;57745;42.524;12.052;2022-09-30T11:57:40;5.95;;;1.85;;
58366;SDS011;57745;42.524;12.052;2022-09-30T12:00:14;4.50;;;1.42;;
58366;SDS011;57745;42.524;12.052;2022-09-30T12:05:30;8.48;;;1.60;;
58366;SDS011;57745;42.524;12.052;2022-09-30T12:08:03;10.40;;;2.33;;
58366;SDS011;57745;42.524;12.052;2022-09-30T12:13:33;7.65;;;1.73;;
58366;SDS011;57745;42.524;12.052;2022-09-30T12:16:02;7.80;;;2.00;;
58366;SDS011;57745;42.524;12.052;2022-09-30T12:18:35;6.07;;;1.67;;
58366;SDS011;57745;42.524;12.052;2022-09-30T12:23:43;5.63;;;1.52;;
58366;SDS011;57745;42.524;12.052;2022-09-30T12:26:13;5.57;;;1.58;;
58366;SDS011;57745;42.524;12.052;2022-09-30T12:28:51;4.88;;;1.20;;
58366;SDS011;57745;42.524;12.052;2022-09-30T12:40:02;4.32;;;1.35;;
58366;SDS011;57745;42.524;12.052;2022-09-30T12:48:20;6.05;;;1.40;;
58366;SDS011;57745;42.524;12.052;2022-09-30T12:50:54;4.68;;;2.00;;
58366;SDS011;57745;42.524;12.052;2022-09-30T12:56:01;4.57;;;1.45;;
58366;SDS011;57745;42.524;12.052;2022-09-30T12:58:42;6.60;;;1.20;;
58366;SDS011;57745;42.524;12.052;2022-09-30T13:01:21;4.20;;;1.20;;
58366;SDS011;57745;42.524;12.052;2022-09-30T13:06:23;4.30;;;1.67;;
58366;SDS011;57745;42.524;12.052;2022-09-30T13:11:46;3.85;;;1.20;;
58366;SDS011;57745;42.524;12.052;2022-09-30T13:19:38;6.13;;;1.60;;
58366;SDS011;57745;42.524;12.052;2022-09-30T13:27:33;5.43;;;1.40;;
58366;SDS011;57745;42.524;12.052;2022-09-30T13:30:30;5.07;;;1.30;;
58366;SDS011;57745;42.524;12.052;2022-09-30T13:35:34;3.95;;;1.50;;
58366;SDS011;57745;42.524;12.052;2022-09-30T13:38:15;4.45;;;1.40;;
58366;SDS011;57745;42.524;12.052;2022-09-30T13:43:39;6.00;;;1.40;;
58366;SDS011;57745;42.524;12.052;2022-09-30T13:47:18;6.30;;;1.65;;
58366;SDS011;57745;42.524;12.052;2022-09-30T13:51:45;5.45;;;1.50;;
58366;SDS011;57745;42.524;12.052;2022-09-30T13:56:44;4.63;;;1.38;;
58366;SDS011;57745;42.524;12.052;2022-09-30T14:10:25;5.40;;;1.30;;
58366;SDS011;57745;42.524;12.052;2022-09-30T14:22:07;6.18;;;1.52;;
58366;SDS011;57745;42.524;12.052;2022-09-30T14:24:35;8.52;;;1.85;;
58366;SDS011;57745;42.524;12.052;2022-09-30T14:32:16;4.75;;;1.40;;
58366;SDS011;57745;42.524;12.052;2022-09-30T14:34:45;4.80;;;1.80;;
58366;SDS011;57745;42.524;12.052;2022-09-30T14:37:35;7.10;;;1.75;;
58366;SDS011;57745;42.524;12.052;2022-09-30T14:40:24;4.82;;;1.35;;
58366;SDS011;57745;42.524;12.052;2022-09-30T14:42:59;5.38;;;1.40;;
58366;SDS011;57745;42.524;12.052;2022-09-30T14:45:30;5.80;;;1.40;;
58366;SDS011;57745;42.524;12.052;2022-09-30T14:48:08;4.70;;;1.50;;
58366;SDS011;57745;42.524;12.052;2022-09-30T14:50:54;2.92;;;1.17;;
58366;SDS011;57745;42.524;12.052;2022-09-30T14:53:35;4.68;;;1.80;;
58366;SDS011;57745;42.524;12.052;2022-09-30T14:56:13;4.28;;;2.13;;
58366;SDS011;57745;42.524;12.052;2022-09-30T14:58:45;7.18;;;1.48;;
58366;SDS011;57745;42.524;12.052;2022-09-30T15:01:15;3.92;;;1.40;;
58366;SDS011;57745;42.524;12.052;2022-09-30T15:04:15;3.15;;;1.20;;
58366;SDS011;57745;42.524;12.052;2022-09-30T15:06:41;3.75;;;1.35;;
58366;SDS011;57745;42.524;12.052;2022-09-30T15:11:38;4.03;;;1.40;;
58366;SDS011;57745;42.524;12.052;2022-09-30T15:14:07;3.22;;;1.20;;
58366;SDS011;57745;42.524;12.052;2022-09-30T15:16:48;7.50;;;1.60;;
58366;SDS011;57745;42.524;12.052;2022-09-30T15:19:23;3.58;;;1.45;;
58366;SDS011;57745;42.524;12.052;2022-09-30T15:21:52;3.55;;;2.05;;
58366;SDS011;57745;42.524;12.052;2022-09-30T15:24:19;4.03;;;1.50;;
58366;SDS011;57745;42.524;12.052;2022-09-30T15:26:47;3.83;;;1.40;;
58366;SDS011;57745;42.524;12.052;2022-09-30T15:29:14;6.63;;;2.15;;
58366;SDS011;57745;42.524;12.052;2022-09-30T15:31:44;3.53;;;1.23;;
58366;SDS011;57745;42.524;12.052;2022-09-30T15:34:16;4.72;;;1.33;;
58366;SDS011;57745;42.524;12.052;2022-09-30T15:36:47;3.67;;;1.38;;
58366;SDS011;57745;42.524;12.052;2022-09-30T15:39:39;4.40;;;1.90;;
58366;SDS011;57745;42.524;12.052;2022-09-30T15:44:59;4.65;;;1.48;;
58366;SDS011;57745;42.524;12.052;2022-09-30T15:47:26;3.97;;;1.52;;
58366;SDS011;57745;42.524;12.052;2022-09-30T15:49:52;4.35;;;1.60;;
58366;SDS011;57745;42.524;12.052;2022-09-30T15:52:35;5.53;;;1.42;;
58366;SDS011;57745;42.524;12.052;2022-09-30T15:58:02;4.05;;;1.55;;
58366;SDS011;57745;42.524;12.052;2022-09-30T16:00:33;3.05;;;1.65;;
58366;SDS011;57745;42.524;12.052;2022-09-30T16:03:12;4.45;;;1.30;;
58366;SDS011;57745;42.524;12.052;2022-09-30T16:05:42;5.60;;;1.30;;
58366;SDS011;57745;42.524;12.052;2022-09-30T16:08:08;3.03;;;1.48;;
58366;SDS011;57745;42.524;12.052;2022-09-30T16:10:47;2.78;;;1.33;;
58366;SDS011;57745;42.524;12.052;2022-09-30T16:13:18;4.15;;;1.90;;
58366;SDS011;57745;42.524;12.052;2022-09-30T16:15:46;3.15;;;1.40;;
58366;SDS011;57745;42.524;12.052;2022-09-30T16:18:16;4.65;;;1.80;;
58366;SDS011;57745;42.524;12.052;2022-09-30T16:20:54;3.67;;;1.85;;
58366;SDS011;57745;42.524;12.052;2022-09-30T16:23:36;3.83;;;1.40;;
58366;SDS011;57745;42.524;12.052;2022-09-30T16:28:39;4.97;;;1.75;;
58366;SDS011;57745;42.524;12.052;2022-09-30T16:31:07;5.82;;;1.80;;
58366;SDS011;57745;42.524;12.052;2022-09-30T16:33:34;4.32;;;1.67;;
58366;SDS011;57745;42.524;12.052;2022-09-30T16:36:06;3.45;;;1.80;;
58366;SDS011;57745;42.524;12.052;2022-09-30T16:38:32;3.72;;;1.90;;
58366;SDS011;57745;42.524;12.052;2022-09-30T16:40:58;5.90;;;1.85;;
58366;SDS011;57745;42.524;12.052;2022-09-30T16:43:26;4.22;;;1.80;;
58366;SDS011;57745;42.524;12.052;2022-09-30T16:45:51;3.20;;;1.80;;
58366;SDS011;57745;42.524;12.052;2022-09-30T16:48:17;4.85;;;1.65;;
58366;SDS011;57745;42.524;12.052;2022-09-30T16:50:49;4.43;;;2.20;;
58366;SDS011;57745;42.524;12.052;2022-09-30T16:53:18;3.67;;;1.70;;
58366;SDS011;57745;42.524;12.052;2022-09-30T16:55:44;5.25;;;2.15;;
58366;SDS011;57745;42.524;12.052;2022-09-30T16:58:11;7.35;;;1.88;;
58366;SDS011;57745;42.524;12.052;2022-09-30T17:00:37;3.25;;;1.70;;
58366;SDS011;57745;42.524;12.052;2022-09-30T17:03:08;3.15;;;1.60;;
58366;SDS011;57745;42.524;12.052;2022-09-30T17:05:38;3.47;;;1.77;;
58366;SDS011;57745;42.524;12.052;2022-09-30T17:08:04;3.40;;;1.75;;
58366;SDS011;57745;42.524;12.052;2022-09-30T17:10:30;4.30;;;1.70;;
58366;SDS011;57745;42.524;12.052;2022-09-30T17:12:58;3.13;;;1.83;;
58366;SDS011;57745;42.524;12.052;2022-09-30T17:15:24;4.05;;;1.65;;
58366;SDS011;57745;42.524;12.052;2022-09-30T17:17:52;4.13;;;1.77;;
58366;SDS011;57745;42.524;12.052;2022-09-30T17:20:18;4.45;;;1.63;;
58366;SDS011;57745;42.524;12.052;2022-09-30T17:22:44;4.43;;;2.03;;
58366;SDS011;57745;42.524;12.052;2022-09-30T17:25:10;4.32;;;1.85;;
58366;SDS011;57745;42.524;12.052;2022-09-30T17:27:36;4.53;;;2.22;;
58366;SDS011;57745;42.524;12.052;2022-09-30T17:30:03;3.85;;;1.95;;
58366;SDS011;57745;42.524;12.052;2022-09-30T17:32:29;6.00;;;2.30;;
58366;SDS011;57745;42.524;12.052;2022-09-30T17:34:55;6.60;;;2.10;;
58366;SDS011;57745;42.524;12.052;2022-09-30T17:37:20;6.55;;;2.42;;
58366;SDS011;57745;42.524;12.052;2022-09-30T17:39:46;7.65;;;2.47;;
58366;SDS011;57745;42.524;12.052;2022-09-30T17:42:12;5.05;;;1.88;;
58366;SDS011;57745;42.524;12.052;2022-09-30T17:44:57;3.95;;;1.95;;
58366;SDS011;57745;42.524;12.052;2022-09-30T17:47:22;5.50;;;2.10;;
58366;SDS011;57745;42.524;12.052;2022-09-30T17:49:48;7.50;;;2.00;;
58366;SDS011;57745;42.524;12.052;2022-09-30T17:52:13;3.78;;;2.00;;
58366;SDS011;57745;42.524;12.052;2022-09-30T17:54:39;6.05;;;1.73;;
58366;SDS011;57745;42.524;12.052;2022-09-30T17:57:05;5.70;;;2.10;;
58366;SDS011;57745;42.524;12.052;2022-09-30T17:59:32;3.03;;;1.63;;
58366;SDS011;57745;42.524;12.052;2022-09-30T18:01:58;3.55;;;1.85;;
58366;SDS011;57745;42.524;12.052;2022-09-30T18:04:23;5.95;;;2.38;;
58366;SDS011;57745;42.524;12.052;2022-09-30T18:06:53;5.43;;;2.30;;
58366;SDS011;57745;42.524;12.052;2022-09-30T18:09:20;5.78;;;1.80;;
58366;SDS011;57745;42.524;12.052;2022-09-30T18:11:46;4.80;;;2.20;;
58366;SDS011;57745;42.524;12.052;2022-09-30T18:14:12;2.90;;;1.80;;
58366;SDS011;57745;42.524;12.052;2022-09-30T18:16:38;4.05;;;1.77;;
58366;SDS011;57745;42.524;12.052;2022-09-30T18:19:04;5.97;;;1.98;;
58366;SDS011;57745;42.524;12.052;2022-09-30T18:21:31;4.95;;;2.20;;
58366;SDS011;57745;42.524;12.052;2022-09-30T18:23:57;3.55;;;1.80;;
58366;SDS011;57745;42.524;12.052;2022-09-30T18:26:25;5.15;;;2.00;;
58366;SDS011;57745;42.524;12.052;2022-09-30T18:28:53;3.53;;;1.55;;
58366;SDS011;57745;42.524;12.052;2022-09-30T18:31:20;2.38;;;1.38;;
58366;SDS011;57745;42.524;12.052;2022-09-30T18:33:53;2.30;;;1.60;;
58366;SDS011;57745;42.524;12.052;2022-09-30T18:36:19;4.15;;;1.50;;